createdAt,value
2023-04-14T00:02:28.820Z,674
2023-04-14T00:07:47.385Z,673
2023-04-14T00:13:05.538Z,674
2023-04-14T00:18:24.122Z,672
2023-04-14T00:23:42.546Z,676
2023-04-14T00:29:01.221Z,681
2023-04-14T00:34:20.760Z,677
2023-04-14T00:39:38.988Z,674
2023-04-14T00:44:57.347Z,675
2023-04-14T00:50:15.686Z,679
2023-04-14T00:55:33.712Z,680
2023-04-14T01:00:52.262Z,677
2023-04-14T01:06:10.356Z,679
2023-04-14T01:11:28.997Z,681
2023-04-14T01:16:47.141Z,677
2023-04-14T01:22:05.706Z,676
2023-04-14T01:27:23.894Z,683
2023-04-14T01:32:42.262Z,683
2023-04-14T01:38:00.528Z,684
2023-04-14T01:43:18.929Z,689
2023-04-14T01:48:37.056Z,688
2023-04-14T01:53:55.263Z,689
2023-04-14T01:59:13.331Z,683
2023-04-14T02:04:31.663Z,683
2023-04-14T02:09:49.635Z,687
2023-04-14T02:15:08.168Z,687
2023-04-14T02:20:26.321Z,690
2023-04-14T02:25:44.875Z,685
2023-04-14T02:31:03.245Z,691
2023-04-14T02:36:21.771Z,687
2023-04-14T02:41:40.278Z,690
2023-04-14T02:46:58.632Z,689
2023-04-14T02:52:16.747Z,689
2023-04-14T02:57:34.925Z,688
2023-04-14T03:02:53.573Z,693
2023-04-14T03:08:12.024Z,690
2023-04-14T03:13:30.515Z,689
2023-04-14T03:18:48.669Z,689
2023-04-14T03:24:07.207Z,691
2023-04-14T03:29:25.727Z,683
2023-04-14T03:34:43.878Z,687
2023-04-14T03:40:01.994Z,690
2023-04-14T03:45:20.553Z,690
2023-04-14T03:50:38.958Z,691
2023-04-14T03:55:57.321Z,689
2023-04-14T04:01:15.684Z,685
2023-04-14T04:06:33.686Z,685
2023-04-14T04:11:52.240Z,685
2023-04-14T04:17:10.409Z,687
2023-04-14T04:22:28.564Z,683
2023-04-14T04:27:46.761Z,683
2023-04-14T04:33:05.607Z,678
2023-04-14T04:38:23.899Z,679
2023-04-14T04:43:42.066Z,678
2023-04-14T04:49:00.702Z,680
2023-04-14T04:54:20.085Z,686
2023-04-14T04:59:38.589Z,679
2023-04-14T05:04:57.218Z,680
2023-04-14T05:10:15.878Z,677
2023-04-14T05:15:34.056Z,679
2023-04-14T05:20:52.796Z,676
2023-04-14T05:26:30.779Z,676
2023-04-14T05:32:15.391Z,674
2023-04-14T05:37:35.658Z,668
2023-04-14T05:42:56.509Z,666
2023-04-14T05:48:15.508Z,665
2023-04-14T05:53:33.842Z,664
2023-04-14T05:58:52.406Z,663
2023-04-14T06:04:11.371Z,659
2023-04-14T06:09:30.682Z,659
2023-04-14T06:14:48.725Z,660
2023-04-14T06:20:06.884Z,658
2023-04-14T06:25:25.251Z,656
2023-04-14T06:30:43.836Z,661
2023-04-14T06:36:02.422Z,658
2023-04-14T06:41:21.014Z,655
2023-04-14T06:46:39.258Z,652
2023-04-14T06:51:57.671Z,650
2023-04-14T06:57:15.831Z,650
2023-04-14T07:02:34.077Z,649
2023-04-14T07:07:52.821Z,647
2023-04-14T07:13:11.207Z,646
2023-04-14T07:18:29.638Z,643
2023-04-14T07:23:48.488Z,638
2023-04-14T07:29:07.130Z,633
2023-04-14T07:34:25.154Z,631
2023-04-14T07:39:43.484Z,625
2023-04-14T07:45:01.642Z,630
2023-04-14T07:50:20.153Z,622
2023-04-14T07:55:38.546Z,621
2023-04-14T08:00:56.718Z,614
2023-04-14T08:06:15.418Z,608
2023-04-14T08:11:33.972Z,610
2023-04-14T08:16:52.208Z,601
2023-04-14T08:22:10.442Z,593
2023-04-14T08:27:28.433Z,592
2023-04-14T08:32:46.479Z,587
2023-04-14T08:38:04.897Z,581
2023-04-14T08:43:23.221Z,579
2023-04-14T08:48:41.821Z,578
2023-04-14T08:54:00.155Z,572
2023-04-14T08:59:19.428Z,580
2023-04-14T09:04:37.936Z,573
2023-04-14T09:09:57.259Z,569
2023-04-14T09:15:15.436Z,572
2023-04-14T09:20:40.013Z,571
2023-04-14T09:26:00.509Z,569
2023-04-14T09:31:19.132Z,568
2023-04-14T09:36:37.915Z,565
2023-04-14T09:41:56.553Z,562
2023-04-14T09:47:15.139Z,563
2023-04-14T09:52:33.460Z,567
2023-04-14T09:57:52.163Z,562
2023-04-14T10:03:10.644Z,561
2023-04-14T10:08:29.026Z,564
2023-04-14T10:13:47.412Z,558
2023-04-14T10:19:06.359Z,555
2023-04-14T10:24:25.645Z,555
2023-04-14T10:29:44.076Z,551
2023-04-14T10:35:02.633Z,546
2023-04-14T10:40:22.769Z,545
2023-04-14T10:45:41.528Z,550
2023-04-14T10:51:00.339Z,541
2023-04-14T10:56:18.283Z,545
2023-04-14T11:01:36.519Z,544
2023-04-14T11:06:54.571Z,568
2023-04-14T11:12:13.035Z,471
2023-04-14T11:17:31.259Z,414
2023-04-14T11:22:49.948Z,432
2023-04-14T11:28:08.321Z,465
2023-04-14T11:33:26.485Z,475
2023-04-14T11:38:46.048Z,494
2023-04-14T11:44:05.101Z,460
2023-04-14T11:49:23.697Z,454
2023-04-14T11:54:42.308Z,490
2023-04-14T12:00:00.648Z,523
2023-04-14T12:05:19.262Z,572
2023-04-14T12:10:37.946Z,582
2023-04-14T12:15:56.111Z,599
2023-04-14T12:21:14.666Z,609
2023-04-14T12:26:33.192Z,639
2023-04-14T12:31:51.492Z,663
2023-04-14T12:37:10.067Z,693
2023-04-14T12:42:28.618Z,695
2023-04-14T12:47:47.164Z,672
2023-04-14T12:53:05.639Z,653
2023-04-14T12:58:24.161Z,637
2023-04-14T13:03:42.718Z,636
2023-04-14T13:09:02.181Z,618
2023-04-14T13:14:21.839Z,607
2023-04-14T13:19:40.004Z,601
2023-04-14T13:24:58.492Z,590
2023-04-14T13:30:16.844Z,613
2023-04-14T13:35:35.259Z,590
2023-04-14T13:40:54.554Z,588
2023-04-14T13:46:12.959Z,594
2023-04-14T13:51:37.169Z,603
2023-04-14T13:56:39.931Z,616
2023-04-14T14:01:58.845Z,623
2023-04-14T14:07:17.727Z,622
2023-04-14T14:12:35.637Z,618
2023-04-14T14:17:38.278Z,614
2023-04-14T14:22:56.488Z,617
2023-04-14T14:28:15.075Z,609
2023-04-14T14:33:33.503Z,623
2023-04-14T14:38:52.126Z,624
2023-04-14T14:44:10.111Z,629
2023-04-14T14:49:28.686Z,635
2023-04-14T14:54:46.789Z,545
2023-04-14T15:00:04.798Z,578
2023-04-14T15:05:23.299Z,640
2023-04-14T15:10:47.005Z,730
2023-04-14T15:16:05.246Z,816
2023-04-14T15:21:23.726Z,854
2023-04-14T15:26:41.859Z,858
2023-04-14T15:32:00.236Z,870
2023-04-14T15:37:18.972Z,918
2023-04-14T15:42:37.175Z,944
2023-04-14T15:47:55.638Z,966
2023-04-14T15:53:14.324Z,985
2023-04-14T15:58:32.472Z,1003
2023-04-14T16:03:52.558Z,1009
2023-04-14T16:09:11.379Z,1015
2023-04-14T16:14:29.586Z,1021
2023-04-14T16:19:47.545Z,1017
2023-04-14T16:25:05.859Z,1008
2023-04-14T16:30:24.467Z,1003
2023-04-14T16:35:42.432Z,1000
2023-04-14T16:41:00.754Z,994
2023-04-14T16:46:19.171Z,1003
2023-04-14T16:51:38.255Z,1002
2023-04-14T16:56:56.776Z,1004
2023-04-14T17:02:15.420Z,1012
2023-04-14T17:07:34.022Z,1019
2023-04-14T17:12:52.475Z,1057
2023-04-14T17:18:11.318Z,1061
2023-04-14T17:23:29.552Z,1071
2023-04-14T17:28:47.891Z,1084
2023-04-14T17:34:06.274Z,1103
2023-04-14T17:39:25.119Z,1110
2023-04-14T17:44:43.225Z,1113
2023-04-14T17:50:01.650Z,1093
2023-04-14T17:55:21.046Z,1062
2023-04-14T18:00:39.915Z,1034
2023-04-14T18:05:58.855Z,1007
2023-04-14T18:11:18.299Z,980
2023-04-14T18:16:36.989Z,954
2023-04-14T18:21:55.612Z,977
2023-04-14T18:32:40.903Z,989
2023-04-14T18:37:59.297Z,984
2023-04-14T18:43:17.692Z,979
2023-04-14T18:48:36.592Z,980
2023-04-14T18:53:54.701Z,979
2023-04-14T18:59:13.217Z,986
2023-04-14T19:04:31.981Z,989
2023-04-14T19:09:50.109Z,996
2023-04-14T19:15:08.577Z,1005
2023-04-14T19:20:26.894Z,1004
2023-04-14T19:25:45.304Z,1002
2023-04-14T19:31:04.250Z,1008
2023-04-14T19:36:22.652Z,1015
2023-04-14T19:41:41.068Z,1021
2023-04-14T19:46:59.725Z,1021
2023-04-14T19:52:18.267Z,1022
2023-04-14T19:57:36.890Z,1029
2023-04-14T20:02:55.361Z,1030
2023-04-14T20:08:13.756Z,1031
2023-04-14T20:13:32.317Z,1065
2023-04-14T20:18:50.585Z,1087
2023-04-14T20:24:09.200Z,1115
2023-04-14T20:29:27.644Z,1132
2023-04-14T20:34:46.221Z,1160
2023-04-14T20:40:04.670Z,1175
2023-04-14T20:45:22.722Z,1195
2023-04-14T20:50:40.954Z,1230
2023-04-14T20:55:59.096Z,1237
2023-04-14T21:01:17.452Z,1254
2023-04-14T21:06:35.964Z,1270
2023-04-14T21:12:14.166Z,1278
2023-04-14T21:17:34.742Z,1292
2023-04-14T21:22:53.260Z,1289
2023-04-14T21:28:11.380Z,1297
2023-04-14T21:33:32.450Z,1317
2023-04-14T21:38:51.013Z,1324
2023-04-14T21:44:09.149Z,1332
2023-04-14T21:49:27.148Z,1327
2023-04-14T21:54:45.351Z,1318
2023-04-14T22:00:03.909Z,1297
2023-04-14T22:05:22.485Z,1260
2023-04-14T22:10:41.093Z,1235
2023-04-14T22:15:59.429Z,1224
2023-04-14T22:21:17.971Z,1222
2023-04-14T22:26:36.365Z,1215
2023-04-14T22:31:54.513Z,1221
2023-04-14T22:37:12.862Z,1224
2023-04-14T22:42:33.961Z,1229
2023-04-14T22:47:52.316Z,1233
2023-04-14T22:53:10.668Z,1236
2023-04-14T22:58:28.691Z,1235
2023-04-14T23:03:46.959Z,1229
2023-04-14T23:09:05.249Z,1230
2023-04-14T23:14:23.519Z,1233
2023-04-14T23:19:41.626Z,1233
2023-04-14T23:25:00.205Z,1227
2023-04-14T23:30:18.592Z,1262
2023-04-14T23:35:36.947Z,1308
2023-04-14T23:40:55.092Z,1348
2023-04-14T23:46:13.107Z,1381
2023-04-14T23:51:31.351Z,1404
2023-04-14T23:56:50.073Z,1433
